Pactola Lake, South Dakota
Current Conditions -  °F | °C
As of 4:58 PM on Saturday 25 Oct 2014 (Local Time) from KRCA Reporting Station
Clear Clear  
Wind Chill: 64°   Ceiling: Unl
Heat Index: 64°   Visibility: 10mi
Dew Point: 39°   Wind: 15mph
Humidity: 39%   Direction: 170°S
Pressure: 29.96"   Gusts: NA
Location:  44.07°N, 103.324°W
Report Text: KRCA 252258Z AUTO 17013KT 10SM CLR 18/04 A2996 RMK AO2 SLP148 T01800038 $
Loading
Personal Weather Stations






























Interactive Weather Map
Tropical Storm Tracking
New forecast layout! Learn more

10-Day Weather Forecast

Advertisements
Track Severe Weather on mobile